Time;durP1;ratioP1;P1;durP2;ratioP2;P2;SDS_P1;SDS_P2;PMS_P1;PMS_P2;Temp;Humidity;BMP_temperature;BMP_pressure;BME280_temperature;BME280_humidity;BME280_pressure;Samples;Min_cycle;Max_cycle;Signal;HPM_P1;HPM_P2
2023/07/22 00:00:22;;;;;;;20.20;19.20;;;15.60;99.90;;;;;;6243832;23;20444;-78
2023/07/22 00:02:49;;;;;;;19.87;18.70;;;15.50;99.90;;;;;;6243873;23;20414;-78
2023/07/22 00:05:21;;;;;;;20.37;19.20;;;15.50;99.90;;;;;;6244296;23;20399;-78
2023/07/22 00:07:50;;;;;;;20.87;19.70;;;15.40;99.90;;;;;;6243960;23;20396;-77
2023/07/22 00:10:17;;;;;;;20.40;19.30;;;15.40;99.90;;;;;;6243738;23;20411;-76
2023/07/22 00:12:44;;;;;;;20.23;19.23;;;15.40;99.90;;;;;;6243880;22;20435;-77
2023/07/22 00:15:11;;;;;;;21.40;20.20;;;15.30;99.90;;;;;;6213367;23;20746;-76
2023/07/22 00:17:38;;;;;;;19.30;18.40;;;15.30;99.90;;;;;;6212768;23;20427;-77
2023/07/22 00:20:06;;;;;;;19.40;18.40;;;15.20;99.90;;;;;;6212642;23;20452;-78
2023/07/22 00:22:33;;;;;;;20.13;18.97;;;15.10;99.90;;;;;;6213657;23;20499;-76
2023/07/22 00:25:01;;;;;;;20.17;19.17;;;15.10;99.90;;;;;;6212815;23;20409;-77
2023/07/22 00:27:28;;;;;;;20.60;19.40;;;15.10;99.90;;;;;;6213199;23;20499;-76
2023/07/22 00:29:55;;;;;;;18.13;17.27;;;15.20;99.90;;;;;;6213235;23;20780;-78
2023/07/22 00:32:21;;;;;;;18.33;17.20;;;15.10;99.90;;;;;;6212991;23;20505;-77
2023/07/22 00:34:48;;;;;;;18.37;17.47;;;15.10;99.90;;;;;;6212854;23;20402;-78
2023/07/22 00:37:16;;;;;;;18.33;17.20;;;15.10;99.90;;;;;;6212980;23;20409;-76
2023/07/22 00:39:43;;;;;;;19.47;18.47;;;15.00;99.90;;;;;;6200287;23;20448;-76
2023/07/22 00:42:11;;;;;;;18.73;17.83;;;15.10;99.90;;;;;;6213056;23;20412;-77
2023/07/22 00:44:38;;;;;;;19.37;18.37;;;15.10;99.90;;;;;;6212617;23;20416;-77
2023/07/22 00:47:05;;;;;;;19.60;18.70;;;15.00;99.90;;;;;;6212981;23;20413;-77
2023/07/22 00:49:32;;;;;;;19.40;18.30;;;15.00;99.90;;;;;;6213139;23;20731;-77
2023/07/22 00:52:02;;;;;;;20.43;19.33;;;15.00;99.90;;;;;;6212753;23;20420;-76
2023/07/22 00:54:29;;;;;;;19.50;18.50;;;14.90;99.90;;;;;;6212721;23;20405;-77
2023/07/22 00:56:57;;;;;;;19.53;18.63;;;14.90;99.90;;;;;;6212482;23;20413;-76
2023/07/22 00:59:25;;;;;;;19.23;18.07;;;14.90;99.90;;;;;;6212697;23;20405;-77
2023/07/22 01:01:52;;;;;;;19.57;18.47;;;14.80;99.90;;;;;;6212432;23;20452;-79
2023/07/22 01:04:22;;;;;;;18.27;17.37;;;14.80;99.90;;;;;;6212830;23;20407;-77
2023/07/22 01:06:49;;;;;;;19.17;18.07;;;14.70;99.90;;;;;;6212948;23;20499;-78
2023/07/22 01:09:16;;;;;;;19.07;18.20;;;14.80;99.90;;;;;;6212790;23;20740;-76
2023/07/22 01:11:43;;;;;;;19.67;18.50;;;14.70;99.90;;;;;;6212024;23;20425;-77
2023/07/22 01:14:10;;;;;;;19.30;18.30;;;14.70;99.90;;;;;;6229906;23;20436;-76
2023/07/22 01:16:38;;;;;;;18.93;17.93;;;14.70;99.90;;;;;;6243086;23;20404;-76
2023/07/22 01:19:06;;;;;;;19.17;18.27;;;14.70;99.90;;;;;;6242943;23;20422;-77
2023/07/22 01:21:33;;;;;;;18.93;17.93;;;14.70;99.90;;;;;;6242701;23;20443;-77
2023/07/22 01:24:02;;;;;;;19.60;18.60;;;14.70;99.90;;;;;;6242736;23;20412;-77
2023/07/22 01:26:28;;;;;;;19.20;18.30;;;14.60;99.90;;;;;;6242282;23;20922;-78
2023/07/22 01:29:03;;;;;;;19.13;18.20;;;14.50;99.90;;;;;;6242573;23;20814;-78
2023/07/22 01:31:30;;;;;;;19.67;18.73;;;14.50;99.90;;;;;;6242694;23;20388;-78
2023/07/22 01:33:58;;;;;;;19.37;18.27;;;14.50;99.90;;;;;;6242601;23;20403;-78
2023/07/22 01:36:25;;;;;;;19.60;18.60;;;14.50;99.90;;;;;;6242675;23;20530;-79
2023/07/22 01:38:52;;;;;;;19.40;18.40;;;14.50;99.90;;;;;;6242691;23;20411;-78
2023/07/22 01:41:20;;;;;;;19.47;18.53;;;14.50;99.90;;;;;;6242150;23;20435;-79
2023/07/22 01:43:46;;;;;;;18.80;17.90;;;14.50;99.90;;;;;;6242684;23;20415;-78
2023/07/22 01:46:13;;;;;;;19.80;18.80;;;14.50;99.90;;;;;;6246202;23;20411;-79
2023/07/22 01:48:40;;;;;;;19.73;18.83;;;14.50;99.90;;;;;;6245053;23;20500;-78
2023/07/22 01:51:07;;;;;;;19.40;18.50;;;14.40;99.90;;;;;;6242754;23;20473;-76
2023/07/22 01:53:34;;;;;;;19.33;18.43;;;14.40;99.90;;;;;;6242835;23;20412;-76
2023/07/22 01:56:01;;;;;;;18.97;18.00;;;14.40;99.90;;;;;;6242558;23;20408;-76
2023/07/22 01:58:29;;;;;;;20.10;19.10;;;14.40;99.90;;;;;;6242471;23;20408;-76
2023/07/22 02:00:55;;;;;;;19.43;18.43;;;14.40;99.90;;;;;;6242452;23;20538;-76
2023/07/22 02:03:22;;;;;;;19.80;18.90;;;14.30;99.90;;;;;;6242907;23;20404;-78
2023/07/22 02:05:49;;;;;;;20.90;19.80;;;14.30;99.90;;;;;;6244622;23;20754;-79
2023/07/22 02:08:16;;;;;;;20.00;19.00;;;14.30;99.90;;;;;;6244150;23;20411;-78
2023/07/22 02:10:43;;;;;;;19.67;18.77;;;14.30;99.90;;;;;;6242384;23;20407;-77
2023/07/22 02:13:11;;;;;;;19.93;18.93;;;14.30;99.90;;;;;;6241642;22;20443;-76
2023/07/22 02:15:39;;;;;;;20.70;19.47;;;14.30;99.90;;;;;;6242017;23;20404;-77
2023/07/22 02:18:05;;;;;;;20.03;19.03;;;14.30;99.90;;;;;;6242524;23;20403;-76
2023/07/22 02:20:32;;;;;;;19.70;18.70;;;14.30;99.90;;;;;;6242167;23;20939;-76
2023/07/22 02:22:59;;;;;;;20.30;19.20;;;14.30;99.90;;;;;;6242120;23;20414;-77
2023/07/22 02:25:25;;;;;;;19.87;18.97;;;14.30;99.90;;;;;;6242100;23;20544;-77
2023/07/22 02:27:52;;;;;;;19.67;18.50;;;14.30;99.90;;;;;;6242084;23;20412;-77
2023/07/22 02:30:19;;;;;;;20.53;19.43;;;14.30;99.90;;;;;;6242212;23;20404;-77
2023/07/22 02:32:47;;;;;;;20.47;19.37;;;14.30;99.90;;;;;;6242470;23;20415;-75
2023/07/22 02:35:14;;;;;;;20.90;19.90;;;14.20;99.90;;;;;;6242123;23;20404;-77
2023/07/22 02:37:40;;;;;;;19.60;18.70;;;14.20;99.90;;;;;;6242310;23;20418;-77
2023/07/22 02:40:10;;;;;;;20.50;19.60;;;14.20;99.90;;;;;;6241949;23;20408;-77
2023/07/22 02:42:37;;;;;;;19.80;18.90;;;14.10;99.90;;;;;;6242175;23;20467;-77
2023/07/22 02:45:04;;;;;;;19.70;18.80;;;14.10;99.90;;;;;;6242628;23;20403;-76
2023/07/22 02:47:33;;;;;;;20.10;18.90;;;14.10;99.90;;;;;;6242342;23;20419;-77
2023/07/22 02:50:01;;;;;;;19.27;18.40;;;14.00;99.90;;;;;;6242628;23;20407;-78
2023/07/22 02:52:28;;;;;;;21.33;19.87;;;14.00;99.90;;;;;;6242392;23;20422;-77
2023/07/22 02:55:10;;;;;;;22.73;21.23;;;14.10;99.90;;;;;;6242544;23;20429;-76
2023/07/22 02:57:37;;;;;;;22.60;21.20;;;14.00;99.90;;;;;;6241570;23;20872;-77
2023/07/22 03:00:07;;;;;;;24.13;22.43;;;13.90;99.90;;;;;;6242428;23;20406;-76
2023/07/22 03:02:35;;;;;;;23.90;22.47;;;14.00;99.90;;;;;;6243580;23;20781;-77
2023/07/22 03:05:06;;;;;;;24.10;22.27;;;14.00;99.90;;;;;;6243374;23;20404;-78
2023/07/22 03:07:33;;;;;;;22.30;20.87;;;14.00;99.90;;;;;;6244601;23;20392;-78
2023/07/22 03:10:00;;;;;;;22.13;20.83;;;14.00;99.90;;;;;;6244631;23;20407;-78
2023/07/22 03:12:27;;;;;;;20.30;19.17;;;14.00;99.90;;;;;;6242633;22;20423;-76
2023/07/22 03:14:54;;;;;;;21.37;20.10;;;14.00;99.90;;;;;;6240521;23;20970;-76
2023/07/22 03:17:21;;;;;;;21.30;19.90;;;14.00;99.90;;;;;;6241234;23;20412;-78
2023/07/22 03:19:49;;;;;;;21.43;20.13;;;14.00;99.90;;;;;;6241695;23;20411;-78
2023/07/22 03:22:18;;;;;;;22.17;20.93;;;14.00;99.90;;;;;;6241550;23;20443;-77
2023/07/22 03:24:45;;;;;;;21.70;20.30;;;14.10;99.90;;;;;;6243600;23;20408;-77
2023/07/22 03:27:11;;;;;;;21.37;20.27;;;14.10;99.90;;;;;;6243741;23;20495;-77
2023/07/22 03:29:38;;;;;;;20.97;19.97;;;14.10;99.90;;;;;;6246030;23;20418;-77
2023/07/22 03:32:06;;;;;;;21.07;19.97;;;14.00;99.90;;;;;;6243835;23;20408;-75
2023/07/22 03:34:33;;;;;;;21.00;19.90;;;14.10;99.90;;;;;;6244164;23;20409;-75
2023/07/22 03:36:59;;;;;;;20.60;19.60;;;14.10;99.90;;;;;;6243866;23;20403;-76
2023/07/22 03:39:28;;;;;;;20.67;19.47;;;14.10;99.90;;;;;;6243059;23;20899;-76
2023/07/22 03:41:54;;;;;;;20.30;19.30;;;14.10;99.90;;;;;;6242893;23;21021;-76
2023/07/22 03:44:21;;;;;;;20.00;18.80;;;14.00;99.90;;;;;;6243683;23;20407;-76
2023/07/22 03:46:48;;;;;;;19.00;17.87;;;14.00;99.90;;;;;;6244430;23;20400;-78
2023/07/22 03:49:15;;;;;;;19.30;18.40;;;14.00;99.90;;;;;;6245272;23;20443;-76
2023/07/22 03:51:41;;;;;;;19.93;18.93;;;14.00;99.90;;;;;;6244862;23;20418;-76
2023/07/22 03:54:08;;;;;;;19.57;18.57;;;14.00;99.90;;;;;;6243872;23;20424;-76
2023/07/22 03:56:38;;;;;;;20.13;19.13;;;14.00;99.90;;;;;;6243497;23;20844;-75
2023/07/22 03:59:05;;;;;;;20.30;19.30;;;14.00;99.90;;;;;;6243457;23;20411;-76
2023/07/22 04:01:32;;;;;;;19.40;18.47;;;14.00;99.90;;;;;;6243652;23;20439;-77
2023/07/22 04:03:59;;;;;;;19.33;18.40;;;14.00;99.90;;;;;;6243511;23;20407;-75
2023/07/22 04:06:25;;;;;;;19.57;18.57;;;14.10;99.90;;;;;;6242863;23;20919;-76
2023/07/22 04:08:52;;;;;;;19.33;18.43;;;14.10;99.90;;;;;;6243198;23;20415;-75
2023/07/22 04:11:19;;;;;;;18.33;17.43;;;14.10;99.90;;;;;;6243232;22;20411;-75
2023/07/22 04:13:48;;;;;;;18.40;17.50;;;14.10;99.90;;;;;;6243032;23;20836;-75
2023/07/22 04:16:15;;;;;;;17.57;16.77;;;14.20;99.90;;;;;;6242802;23;20832;-75
2023/07/22 04:18:41;;;;;;;18.47;17.57;;;14.30;99.90;;;;;;6243076;23;20414;-75
2023/07/22 04:21:07;;;;;;;18.23;17.23;;;14.30;99.90;;;;;;6242797;23;20443;-75
2023/07/22 04:23:34;;;;;;;18.47;17.63;;;14.40;99.90;;;;;;6243463;23;20173;-75
2023/07/22 04:26:07;;;;;;;18.77;17.67;;;14.40;99.90;;;;;;6243019;23;20407;-75
2023/07/22 04:28:34;;;;;;;19.40;18.30;;;14.40;99.90;;;;;;6243211;22;20408;-75
2023/07/22 04:31:02;;;;;;;18.93;18.03;;;14.50;99.90;;;;;;6242868;23;20411;-74
2023/07/22 04:33:29;;;;;;;18.93;18.03;;;14.50;99.90;;;;;;6243127;23;20411;-74
2023/07/22 04:35:58;;;;;;;19.53;18.63;;;14.60;99.90;;;;;;6242607;23;20404;-74
2023/07/22 04:38:25;;;;;;;19.57;18.57;;;14.70;99.90;;;;;;6242780;23;20731;-75
2023/07/22 04:40:52;;;;;;;17.60;16.90;;;14.70;99.90;;;;;;6242856;22;20431;-74
2023/07/22 04:43:18;;;;;;;18.73;17.83;;;14.90;99.90;;;;;;6242778;23;20400;-74
2023/07/22 04:45:47;;;;;;;17.97;17.17;;;15.00;99.90;;;;;;6242508;23;20895;-74
2023/07/22 04:48:15;;;;;;;17.60;16.80;;;15.20;99.90;;;;;;6242136;23;20415;-75
2023/07/22 04:50:44;;;;;;;17.80;16.90;;;15.30;99.90;;;;;;6236485;23;20435;-74
2023/07/22 04:53:12;;;;;;;17.40;16.50;;;15.40;99.90;;;;;;6242727;23;20416;-75
2023/07/22 04:55:39;;;;;;;16.77;15.97;;;15.60;99.90;;;;;;6242329;23;20420;-74
2023/07/22 04:58:06;;;;;;;17.00;15.80;;;15.70;99.90;;;;;;6242812;23;20415;-75
2023/07/22 05:00:33;;;;;;;16.17;15.37;;;15.80;99.90;;;;;;6242678;23;20907;-76
2023/07/22 05:03:00;;;;;;;17.40;16.53;;;15.90;99.90;;;;;;6242477;23;20826;-75
2023/07/22 05:05:29;;;;;;;18.37;17.47;;;16.00;99.90;;;;;;6242737;23;20438;-76
2023/07/22 05:07:56;;;;;;;16.83;15.87;;;16.20;99.90;;;;;;6242839;22;20430;-79
2023/07/22 05:10:23;;;;;;;16.67;15.87;;;16.40;99.90;;;;;;6242748;22;20411;-75
2023/07/22 05:12:50;;;;;;;16.30;15.40;;;16.20;99.90;;;;;;6242743;22;20424;-75
2023/07/22 05:15:17;;;;;;;16.57;15.77;;;16.20;99.90;;;;;;6242788;23;20527;-76
2023/07/22 05:17:43;;;;;;;16.10;14.77;;;16.30;99.90;;;;;;6242486;23;20856;-75
2023/07/22 05:20:11;;;;;;;14.53;13.97;;;16.40;99.90;;;;;;6242548;23;20408;-75
2023/07/22 05:22:40;;;;;;;15.50;14.80;;;16.50;99.90;;;;;;6242450;22;20451;-76
2023/07/22 05:25:08;;;;;;;15.50;14.80;;;16.50;99.90;;;;;;6242250;22;20507;-76
2023/07/22 05:27:36;;;;;;;14.90;14.10;;;16.70;99.90;;;;;;6242884;23;20418;-78
2023/07/22 05:30:03;;;;;;;14.83;14.23;;;16.80;99.90;;;;;;6242997;23;20412;-76
2023/07/22 05:32:30;;;;;;;15.80;14.90;;;16.90;99.90;;;;;;6244044;23;20740;-76
2023/07/22 05:34:57;;;;;;;13.53;13.03;;;17.00;99.90;;;;;;6247189;23;20418;-79
2023/07/22 05:37:24;;;;;;;14.50;13.90;;;17.00;99.90;;;;;;6247803;23;20794;-78
2023/07/22 05:39:52;;;;;;;16.13;15.03;;;16.90;99.90;;;;;;6244767;23;20408;-73
2023/07/22 05:42:19;;;;;;;14.87;14.17;;;17.00;99.90;;;;;;6245001;23;20444;-82
2023/07/22 05:44:46;;;;;;;15.83;14.90;;;17.00;99.90;;;;;;6240120;23;20775;-74
2023/07/22 05:47:13;;;;;;;15.07;14.10;;;17.20;99.90;;;;;;6240569;23;20531;-72
2023/07/22 05:49:39;;;;;;;13.90;13.30;;;17.50;99.90;;;;;;6241552;23;20494;-73
2023/07/22 05:52:07;;;;;;;14.93;14.27;;;17.70;99.90;;;;;;6242332;23;20544;-72
2023/07/22 05:54:33;;;;;;;14.80;14.10;;;17.70;99.90;;;;;;6242240;22;20708;-72
2023/07/22 05:57:03;;;;;;;14.60;13.90;;;17.90;99.90;;;;;;6241968;23;20415;-72
2023/07/22 05:59:30;;;;;;;15.27;14.57;;;17.80;99.90;;;;;;6242009;23;20408;-73
2023/07/22 06:01:57;;;;;;;15.17;14.40;;;17.80;99.90;;;;;;6242097;23;21057;-74
2023/07/22 06:04:24;;;;;;;13.33;12.73;;;17.80;99.90;;;;;;6239667;23;20587;-73
2023/07/22 06:06:50;;;;;;;14.03;13.33;;;18.10;99.90;;;;;;6242252;23;20412;-72
2023/07/22 06:09:17;;;;;;;13.60;13.00;;;18.30;99.90;;;;;;6242315;23;20415;-73
2023/07/22 06:11:44;;;;;;;14.10;13.40;;;18.40;99.90;;;;;;6242352;22;20426;-73
2023/07/22 06:14:12;;;;;;;13.57;12.80;;;18.80;99.90;;;;;;6241707;23;20999;-73
2023/07/22 06:16:39;;;;;;;14.13;13.53;;;19.10;99.90;;;;;;6242059;22;20887;-73
2023/07/22 06:19:05;;;;;;;13.80;13.30;;;19.60;99.90;;;;;;6242690;23;20442;-73
2023/07/22 06:21:32;;;;;;;13.60;13.03;;;19.80;99.90;;;;;;6242050;23;20501;-73
2023/07/22 06:23:59;;;;;;;14.70;13.90;;;19.90;99.90;;;;;;6241893;23;20894;-73
2023/07/22 06:26:26;;;;;;;14.47;13.70;;;19.80;99.90;;;;;;6242270;23;20454;-72
2023/07/22 06:28:52;;;;;;;14.17;13.57;;;19.80;99.90;;;;;;6242600;23;20467;-74
2023/07/22 06:31:21;;;;;;;14.17;13.47;;;20.10;99.90;;;;;;6242193;23;20899;-72
2023/07/22 06:33:48;;;;;;;14.50;13.90;;;20.60;99.90;;;;;;6242066;23;20460;-73
2023/07/22 06:36:16;;;;;;;14.27;13.63;;;20.90;99.90;;;;;;6242296;23;20404;-73
2023/07/22 06:38:43;;;;;;;13.97;13.27;;;21.10;99.90;;;;;;6242342;23;20411;-73
2023/07/22 06:41:10;;;;;;;14.23;13.53;;;21.40;99.90;;;;;;6242286;23;20416;-72
2023/07/22 06:43:36;;;;;;;14.83;14.13;;;21.40;99.90;;;;;;6242560;23;20456;-73
2023/07/22 06:46:03;;;;;;;14.33;13.63;;;21.20;99.90;;;;;;6242426;23;20400;-74
2023/07/22 06:48:31;;;;;;;14.37;13.77;;;21.30;99.90;;;;;;6242588;23;20706;-65
2023/07/22 06:50:58;;;;;;;13.60;13.00;;;21.70;99.90;;;;;;6242405;23;20919;-67
2023/07/22 06:53:24;;;;;;;13.30;12.70;;;21.90;99.90;;;;;;6242669;23;20407;-69
2023/07/22 06:55:52;;;;;;;13.37;12.77;;;22.30;99.90;;;;;;6247696;23;20408;-76
2023/07/22 06:58:19;;;;;;;13.97;13.20;;;22.40;99.90;;;;;;6242463;23;20659;-75
2023/07/22 07:00:45;;;;;;;13.43;12.70;;;22.60;99.90;;;;;;6242473;23;20419;-74
2023/07/22 07:03:12;;;;;;;13.90;13.30;;;22.70;99.90;;;;;;6242483;23;20440;-74
2023/07/22 07:05:41;;;;;;;13.48;12.77;;;22.40;99.90;;;;;;6241549;23;20744;-73
2023/07/22 07:08:10;;;;;;;14.63;13.83;;;22.80;99.90;;;;;;6241389;23;20567;-74
2023/07/22 07:10:39;;;;;;;13.67;12.90;;;23.00;99.90;;;;;;6241460;23;20495;-73
2023/07/22 07:13:05;;;;;;;13.40;12.80;;;22.80;99.70;;;;;;6241352;22;20514;-73
2023/07/22 07:15:32;;;;;;;13.60;13.10;;;23.00;99.90;;;;;;6242053;23;20442;-72
2023/07/22 07:17:59;;;;;;;14.60;14.00;;;23.20;99.60;;;;;;6241346;23;20412;-73
2023/07/22 07:20:26;;;;;;;13.67;12.87;;;23.60;98.60;;;;;;6241711;23;20419;-75
2023/07/22 07:22:54;;;;;;;13.90;12.93;;;24.10;97.60;;;;;;6241491;23;20447;-74
2023/07/22 07:25:20;;;;;;;13.90;13.30;;;23.90;98.00;;;;;;6241454;23;20408;-74
2023/07/22 07:27:47;;;;;;;13.37;12.87;;;23.90;97.60;;;;;;6242021;23;20783;-75
2023/07/22 07:30:14;;;;;;;13.53;13.00;;;24.30;97.10;;;;;;6235287;23;20411;-73
2023/07/22 07:32:41;;;;;;;14.07;13.37;;;24.70;96.50;;;;;;6241139;23;20419;-73
2023/07/22 07:35:08;;;;;;;12.80;12.30;;;25.10;95.30;;;;;;6241813;23;20477;-73
2023/07/22 07:37:35;;;;;;;13.87;13.00;;;25.10;95.30;;;;;;6241483;23;20408;-73
2023/07/22 07:40:04;;;;;;;12.67;12.17;;;25.40;94.60;;;;;;6241570;23;20418;-73
2023/07/22 07:42:30;;;;;;;13.47;12.93;;;25.70;94.40;;;;;;6241963;23;20439;-72
2023/07/22 07:44:57;;;;;;;13.67;13.07;;;25.90;93.60;;;;;;6241803;23;20431;-73
2023/07/22 07:47:24;;;;;;;13.23;12.73;;;26.10;93.50;;;;;;6241680;23;20454;-74
2023/07/22 07:49:51;;;;;;;13.77;13.10;;;26.20;93.00;;;;;;6241469;23;20705;-72
2023/07/22 07:52:18;;;;;;;14.30;13.60;;;26.70;92.60;;;;;;6241819;23;20411;-74
2023/07/22 07:54:44;;;;;;;13.90;13.07;;;27.20;91.10;;;;;;6241773;23;20415;-74
2023/07/22 07:57:12;;;;;;;13.37;12.77;;;27.20;90.20;;;;;;6241980;23;20462;-75
2023/07/22 07:59:40;;;;;;;13.00;12.43;;;27.30;89.70;;;;;;6241896;23;20483;-77
2023/07/22 08:02:10;;;;;;;13.60;13.00;;;27.30;88.30;;;;;;6241386;23;20957;-72
2023/07/22 08:04:36;;;;;;;13.60;12.90;;;27.00;90.20;;;;;;6241693;23;20419;-73
2023/07/22 08:07:04;;;;;;;13.00;12.50;;;27.30;88.40;;;;;;6241156;23;20419;-71
2023/07/22 08:09:31;;;;;;;13.40;12.80;;;27.30;86.70;;;;;;6241527;23;20687;-73
2023/07/22 08:11:57;;;;;;;13.00;12.40;;;27.20;86.70;;;;;;6243295;22;20424;-73
2023/07/22 08:14:26;;;;;;;12.97;12.47;;;27.60;82.90;;;;;;6243308;23;20439;-73
2023/07/22 08:16:53;;;;;;;13.47;12.97;;;28.10;78.80;;;;;;6243612;23;20403;-74
2023/07/22 08:19:19;;;;;;;13.20;12.70;;;28.60;77.00;;;;;;6243265;23;20468;-74
2023/07/22 08:21:46;;;;;;;13.40;12.90;;;29.70;73.80;;;;;;6243375;23;20461;-73
2023/07/22 08:24:13;;;;;;;13.60;13.00;;;30.50;70.70;;;;;;6243405;23;20475;-75
2023/07/22 08:26:40;;;;;;;13.63;13.03;;;30.40;69.40;;;;;;6242132;23;20420;-75
2023/07/22 08:29:06;;;;;;;14.70;14.10;;;29.90;69.20;;;;;;6243502;23;20412;-74
2023/07/22 08:31:36;;;;;;;13.40;12.90;;;30.90;68.50;;;;;;6243191;23;20404;-75
2023/07/22 08:34:02;;;;;;;12.77;12.37;;;31.40;66.10;;;;;;6243584;23;20510;-74
2023/07/22 08:36:29;;;;;;;13.80;13.30;;;30.90;58.50;;;;;;6243135;23;20412;-74
2023/07/22 08:38:56;;;;;;;13.40;12.80;;;30.90;61.30;;;;;;6243336;23;20407;-74
2023/07/22 08:41:25;;;;;;;14.27;13.73;;;30.60;58.50;;;;;;6243501;23;20494;-75
2023/07/22 08:43:52;;;;;;;13.80;13.30;;;30.70;58.70;;;;;;6243642;23;20497;-74
2023/07/22 08:46:21;;;;;;;14.00;13.50;;;31.10;57.80;;;;;;6242652;23;20408;-75
2023/07/22 08:48:54;;;;;;;14.10;13.60;;;31.80;57.60;;;;;;6242774;23;20478;-74
2023/07/22 08:51:23;;;;;;;13.40;12.90;;;32.60;55.40;;;;;;6243338;23;20400;-74
2023/07/22 08:53:51;;;;;;;14.57;14.00;;;32.90;53.30;;;;;;6243309;23;20404;-75
2023/07/22 08:56:18;;;;;;;14.13;13.63;;;33.40;52.60;;;;;;6242620;23;20903;-74
2023/07/22 08:58:46;;;;;;;14.40;13.90;;;34.10;49.90;;;;;;6242930;23;20414;-75
2023/07/22 09:01:14;;;;;;;12.70;12.20;;;34.00;49.40;;;;;;6242838;23;20412;-73
2023/07/22 09:03:42;;;;;;;14.33;13.73;;;33.70;49.90;;;;;;6242272;23;20475;-74
2023/07/22 09:06:11;;;;;;;14.20;13.70;;;33.60;49.70;;;;;;6242857;23;20412;-75
2023/07/22 09:08:38;;;;;;;15.00;14.40;;;33.60;49.10;;;;;;6242537;23;20415;-76
2023/07/22 09:11:06;;;;;;;14.60;14.10;;;34.10;49.60;;;;;;6242459;23;20871;-74
2023/07/22 09:13:33;;;;;;;14.63;14.13;;;34.10;48.70;;;;;;6242234;23;20439;-75
2023/07/22 09:16:00;;;;;;;14.97;14.37;;;33.80;48.80;;;;;;6242796;23;20438;-74
2023/07/22 09:18:27;;;;;;;15.07;14.47;;;32.90;47.60;;;;;;6242221;23;20896;-75
2023/07/22 09:20:54;;;;;;;15.00;14.20;;;32.20;49.80;;;;;;6241648;23;20412;-72
2023/07/22 09:23:34;;;;;;;14.23;13.73;;;31.80;50.50;;;;;;6241189;23;20703;-75
2023/07/22 09:26:10;;;;;;;14.80;14.00;;;30.80;51.30;;;;;;6242360;23;20404;-74
2023/07/22 09:28:49;;;;;;;14.80;14.00;;;30.50;51.60;;;;;;6242477;23;21228;-75
2023/07/22 09:31:16;;;;;;;13.93;13.37;;;30.40;52.20;;;;;;6242653;23;20697;-74
2023/07/22 09:33:43;;;;;;;14.27;13.60;;;29.90;50.10;;;;;;6242523;23;20442;-73
2023/07/22 09:36:11;;;;;;;14.50;13.90;;;29.20;51.30;;;;;;6242643;23;20450;-73
2023/07/22 09:38:39;;;;;;;13.90;13.40;;;28.70;53.10;;;;;;6242322;23;20705;-74
2023/07/22 09:41:06;;;;;;;13.60;13.00;;;28.30;55.10;;;;;;6242630;23;20706;-74
2023/07/22 09:43:37;;;;;;;13.47;12.97;;;28.30;55.30;;;;;;6242381;23;20451;-74
2023/07/22 09:46:08;;;;;;;13.80;13.20;;;28.30;55.50;;;;;;6242396;23;20407;-73
2023/07/22 09:48:41;;;;;;;14.30;13.77;;;28.30;55.30;;;;;;6242552;23;20414;-74
2023/07/22 09:51:13;;;;;;;13.23;12.63;;;27.80;58.40;;;;;;6242655;23;20656;-74
2023/07/22 09:53:45;;;;;;;14.83;13.97;;;28.90;57.20;;;;;;6241681;23;20867;-73
2023/07/22 09:56:12;;;;;;;13.63;13.03;;;30.10;53.30;;;;;;6242179;23;20424;-75
2023/07/22 09:58:40;;;;;;;14.23;13.33;;;30.50;51.50;;;;;;6242436;23;20415;-73
2023/07/22 10:01:08;;;;;;;14.03;13.43;;;30.40;52.90;;;;;;6242006;23;20411;-74
2023/07/22 10:03:38;;;;;;;14.40;13.80;;;30.70;53.90;;;;;;6242219;23;20738;-73
2023/07/22 10:06:07;;;;;;;13.63;13.03;;;30.70;52.90;;;;;;6242464;23;20557;-74
2023/07/22 10:08:37;;;;;;;13.70;13.20;;;31.00;51.70;;;;;;6242205;23;20408;-74
2023/07/22 10:11:10;;;;;;;15.03;14.20;;;31.80;50.50;;;;;;6242110;23;20412;-74
2023/07/22 10:13:38;;;;;;;14.03;13.40;;;31.80;48.80;;;;;;6241677;23;20447;-74
2023/07/22 10:16:05;;;;;;;14.00;13.50;;;32.10;48.10;;;;;;6242091;23;20408;-73
2023/07/22 10:18:34;;;;;;;14.30;13.80;;;32.80;47.40;;;;;;6241941;23;20408;-74
2023/07/22 10:21:01;;;;;;;13.67;13.03;;;33.60;45.90;;;;;;6241771;23;20411;-75
2023/07/22 10:23:30;;;;;;;14.30;13.80;;;33.60;45.90;;;;;;6241937;23;20446;-74
2023/07/22 10:25:58;;;;;;;15.00;14.40;;;34.40;43.30;;;;;;6241795;23;20511;-75
2023/07/22 10:28:27;;;;;;;14.40;13.70;;;34.20;43.80;;;;;;6241654;23;20412;-75
2023/07/22 10:30:54;;;;;;;14.00;13.50;;;33.90;43.40;;;;;;6241839;23;20681;-74
2023/07/22 10:33:21;;;;;;;13.10;12.70;;;33.30;43.80;;;;;;6241617;23;20401;-74
2023/07/22 10:36:04;;;;;;;13.53;13.03;;;32.80;44.30;;;;;;6240506;23;20404;-74
2023/07/22 10:38:31;;;;;;;13.80;13.30;;;31.40;44.50;;;;;;6241545;23;20466;-74
2023/07/22 10:40:58;;;;;;;13.00;12.57;;;30.80;44.50;;;;;;6242062;23;20715;-73
2023/07/22 10:43:28;;;;;;;12.77;12.03;;;30.80;44.60;;;;;;6241187;23;20439;-73
2023/07/22 10:45:56;;;;;;;13.80;13.20;;;31.30;44.70;;;;;;6241695;23;20412;-75
2023/07/22 10:48:26;;;;;;;13.30;12.90;;;31.90;44.40;;;;;;6241233;23;20411;-75
2023/07/22 10:50:54;;;;;;;14.27;13.30;;;32.70;43.50;;;;;;6241555;23;20408;-74
2023/07/22 10:53:28;;;;;;;14.40;13.80;;;33.90;41.90;;;;;;6241559;23;20400;-74
2023/07/22 10:56:06;;;;;;;14.23;13.73;;;34.80;41.60;;;;;;6241810;23;20396;-74
2023/07/22 10:58:56;;;;;;;13.80;13.37;;;35.40;40.80;;;;;;6241324;23;20711;-75
2023/07/22 11:01:27;;;;;;;14.37;13.87;;;35.10;41.00;;;;;;6241413;23;20889;-75
2023/07/22 11:04:22;;;;;;;14.37;13.87;;;35.30;40.50;;;;;;6241396;23;20497;-74
2023/07/22 11:06:56;;;;;;;14.17;13.67;;;33.10;42.60;;;;;;6242032;23;20711;-74
2023/07/22 11:09:41;;;;;;;15.10;14.50;;;32.70;42.50;;;;;;6241762;23;20407;-74
2023/07/22 11:12:10;;;;;;;14.40;13.80;;;32.70;43.60;;;;;;6241684;22;20431;-74
2023/07/22 11:14:47;;;;;;;15.03;14.50;;;32.30;44.70;;;;;;6241415;23;20513;-75
2023/07/22 11:17:13;;;;;;;13.87;13.37;;;32.60;44.10;;;;;;6241798;23;20418;-74
2023/07/22 11:19:41;;;;;;;14.23;13.63;;;32.30;44.90;;;;;;6241654;23;20416;-74
2023/07/22 11:22:08;;;;;;;13.83;13.33;;;32.20;44.40;;;;;;6241626;23;20414;-74
2023/07/22 11:24:35;;;;;;;14.23;13.73;;;32.20;44.30;;;;;;6241222;23;20439;-74
2023/07/22 11:27:04;;;;;;;15.50;14.80;;;32.10;44.90;;;;;;6241256;23;20419;-73
2023/07/22 11:29:31;;;;;;;14.23;13.50;;;31.60;44.60;;;;;;6241502;23;20439;-74
2023/07/22 11:31:59;;;;;;;12.70;12.30;;;31.40;45.00;;;;;;6241600;23;20404;-74
2023/07/22 11:34:26;;;;;;;14.27;13.70;;;32.10;45.00;;;;;;6241270;23;20889;-74
2023/07/22 11:36:54;;;;;;;13.33;12.83;;;32.30;44.30;;;;;;6241253;23;20701;-74
2023/07/22 11:39:22;;;;;;;13.80;13.30;;;32.00;44.50;;;;;;6241645;23;20738;-73
2023/07/22 11:41:50;;;;;;;13.60;13.10;;;31.70;46.20;;;;;;6241649;23;20412;-73
2023/07/22 11:44:18;;;;;;;13.97;13.47;;;31.90;46.70;;;;;;6241262;23;20447;-74
2023/07/22 11:46:49;;;;;;;14.33;13.77;;;33.00;45.00;;;;;;6243435;23;20439;-74
2023/07/22 11:49:25;;;;;;;15.33;13.90;;;32.40;45.20;;;;;;6243844;23;20737;-75
2023/07/22 11:51:52;;;;;;;13.37;12.87;;;33.30;46.00;;;;;;6243730;23;20399;-75
2023/07/22 11:54:21;;;;;;;14.67;14.03;;;33.10;44.90;;;;;;6243782;23;20783;-74
2023/07/22 11:56:48;;;;;;;14.57;13.97;;;32.90;46.60;;;;;;6243396;23;20923;-75
2023/07/22 11:59:15;;;;;;;14.00;13.50;;;33.60;48.20;;;;;;6243659;23;20431;-75
2023/07/22 12:01:45;;;;;;;14.40;13.90;;;34.80;47.70;;;;;;6243826;23;20407;-76
2023/07/22 12:04:13;;;;;;;15.07;14.47;;;35.80;47.10;;;;;;6243384;23;20432;-75
2023/07/22 12:06:41;;;;;;;14.97;14.43;;;36.20;46.30;;;;;;6243684;23;20411;-74
2023/07/22 12:09:09;;;;;;;15.33;14.73;;;36.00;45.00;;;;;;6243600;23;20408;-76
2023/07/22 12:11:36;;;;;;;14.90;14.40;;;36.20;46.40;;;;;;6243349;22;20501;-73
2023/07/22 12:14:08;;;;;;;15.10;14.40;;;37.40;46.50;;;;;;6243197;23;20427;-74
2023/07/22 12:16:37;;;;;;;15.67;15.03;;;37.80;37.60;;;;;;6242923;23;20740;-74
2023/07/22 12:19:05;;;;;;;15.30;14.70;;;36.00;38.90;;;;;;6242578;23;20744;-75
2023/07/22 12:21:32;;;;;;;14.43;13.83;;;34.50;41.80;;;;;;6242430;23;20410;-75
2023/07/22 12:24:00;;;;;;;14.40;13.80;;;34.60;42.20;;;;;;6241888;23;20489;-74
2023/07/22 12:26:27;;;;;;;14.40;13.70;;;34.40;42.00;;;;;;6242410;23;20495;-74
2023/07/22 12:28:55;;;;;;;14.67;14.00;;;33.80;42.00;;;;;;6241387;23;20438;-74
2023/07/22 12:31:22;;;;;;;14.20;13.60;;;32.90;43.40;;;;;;6241989;23;20764;-74